Time;durP1;ratioP1;P1;durP2;ratioP2;P2;SDS_P1;SDS_P2;PMS_P1;PMS_P2;Temp;Humidity;BMP_temperature;BMP_pressure;BME280_temperature;BME280_humidity;BME280_pressure;Samples;Min_cycle;Max_cycle;Signal;HPM_P1;HPM_P2
2023/12/09 00:00:39;;;;;;;126.23;40.80;;;;;;;;;;4978221;28;20201;-48
2023/12/09 00:03:07;;;;;;;111.57;39.37;;;;;;;;;;4978386;28;20205;-48
2023/12/09 00:05:33;;;;;;;107.83;39.07;;;;;;;;;;4978490;28;20449;-47
2023/12/09 00:07:59;;;;;;;118.67;38.60;;;;;;;;;;4978090;28;20437;-47
2023/12/09 00:10:25;;;;;;;107.40;38.67;;;;;;;;;;4990867;28;20198;-47
2023/12/09 00:12:51;;;;;;;118.60;40.27;;;;;;;;;;4994589;28;20198;-48
2023/12/09 00:15:17;;;;;;;111.43;39.97;;;;;;;;;;4994538;28;20456;-47
2023/12/09 00:17:43;;;;;;;112.23;39.83;;;;;;;;;;4992545;28;20675;-47
2023/12/09 00:20:11;;;;;;;121.37;38.50;;;;;;;;;;4993090;28;20434;-47
2023/12/09 00:22:38;;;;;;;93.30;34.83;;;;;;;;;;4994499;28;20226;-47
2023/12/09 00:25:05;;;;;;;113.77;38.93;;;;;;;;;;4994510;28;20447;-47
2023/12/09 00:27:31;;;;;;;116.63;38.77;;;;;;;;;;4994260;28;20506;-47
2023/12/09 00:29:57;;;;;;;98.87;36.70;;;;;;;;;;4994757;28;20448;-48
2023/12/09 00:32:23;;;;;;;98.17;37.13;;;;;;;;;;4994360;28;20254;-47
2023/12/09 00:34:49;;;;;;;108.40;40.03;;;;;;;;;;4994393;28;20602;-47
2023/12/09 00:37:16;;;;;;;100.10;37.50;;;;;;;;;;4994312;28;20202;-47
2023/12/09 00:39:42;;;;;;;100.53;37.73;;;;;;;;;;4994450;28;20438;-47
2023/12/09 00:42:08;;;;;;;94.00;38.37;;;;;;;;;;4994559;28;20805;-47
2023/12/09 00:44:34;;;;;;;93.83;35.93;;;;;;;;;;4994122;28;20191;-47
2023/12/09 00:47:00;;;;;;;101.70;37.07;;;;;;;;;;4994374;28;20679;-48
2023/12/09 00:49:26;;;;;;;104.43;40.13;;;;;;;;;;4994241;28;20198;-47
2023/12/09 00:51:52;;;;;;;99.03;38.43;;;;;;;;;;4993981;28;20708;-47
2023/12/09 00:54:19;;;;;;;85.77;35.17;;;;;;;;;;4994092;28;20213;-47
2023/12/09 00:56:45;;;;;;;94.83;36.03;;;;;;;;;;4993995;28;20209;-47
2023/12/09 00:59:11;;;;;;;89.33;36.93;;;;;;;;;;4994207;28;20509;-47
2023/12/09 01:01:37;;;;;;;90.17;37.50;;;;;;;;;;4993770;28;20608;-47
2023/12/09 01:04:03;;;;;;;88.33;36.83;;;;;;;;;;4993858;28;20293;-47
2023/12/09 01:06:30;;;;;;;96.03;38.60;;;;;;;;;;4993955;28;20226;-47
2023/12/09 01:08:56;;;;;;;91.20;38.27;;;;;;;;;;4993964;28;20445;-47
2023/12/09 01:11:23;;;;;;;84.47;37.47;;;;;;;;;;4993626;28;20241;-47
2023/12/09 01:13:49;;;;;;;89.90;35.47;;;;;;;;;;4993611;28;20438;-47
2023/12/09 01:16:15;;;;;;;95.43;37.53;;;;;;;;;;4993723;28;20534;-47
2023/12/09 01:18:41;;;;;;;81.97;36.40;;;;;;;;;;4993653;28;20194;-47
2023/12/09 01:21:07;;;;;;;78.63;36.53;;;;;;;;;;4993589;28;20500;-47
2023/12/09 01:23:33;;;;;;;72.37;35.37;;;;;;;;;;4993187;28;20257;-47
2023/12/09 01:25:59;;;;;;;83.67;35.47;;;;;;;;;;4993362;28;20481;-47
2023/12/09 01:28:26;;;;;;;73.23;35.03;;;;;;;;;;4993464;28;20277;-47
2023/12/09 01:30:52;;;;;;;70.50;32.97;;;;;;;;;;4993228;28;20229;-47
2023/12/09 01:33:18;;;;;;;76.47;32.33;;;;;;;;;;4993257;28;20194;-47
2023/12/09 01:35:45;;;;;;;83.93;33.93;;;;;;;;;;4993215;28;20210;-47
2023/12/09 01:38:11;;;;;;;71.60;33.20;;;;;;;;;;4993381;28;20203;-47
2023/12/09 01:40:37;;;;;;;75.33;33.47;;;;;;;;;;4993131;28;20544;-47
2023/12/09 01:43:08;;;;;;;74.03;32.17;;;;;;;;;;4993217;28;20525;-47
2023/12/09 01:45:35;;;;;;;69.90;32.40;;;;;;;;;;4992902;28;20198;-47
2023/12/09 01:48:01;;;;;;;66.70;32.80;;;;;;;;;;4993081;28;20441;-47
2023/12/09 01:50:28;;;;;;;71.17;31.63;;;;;;;;;;4993149;28;20492;-47
2023/12/09 01:52:54;;;;;;;61.90;30.87;;;;;;;;;;4993196;28;20434;-47
2023/12/09 01:55:20;;;;;;;61.30;30.07;;;;;;;;;;4992845;28;20854;-47
2023/12/09 01:57:46;;;;;;;64.97;30.57;;;;;;;;;;4991526;28;20229;-47
2023/12/09 02:00:13;;;;;;;66.53;29.43;;;;;;;;;;4992878;28;20449;-47
2023/12/09 02:02:40;;;;;;;62.07;29.60;;;;;;;;;;4992708;28;20679;-47
2023/12/09 02:05:06;;;;;;;56.73;29.13;;;;;;;;;;4992711;28;20484;-47
2023/12/09 02:07:33;;;;;;;57.70;28.20;;;;;;;;;;4992604;28;20430;-47
2023/12/09 02:09:59;;;;;;;56.47;28.73;;;;;;;;;;4992627;28;20441;-47
2023/12/09 02:12:30;;;;;;;58.37;27.17;;;;;;;;;;4992586;28;20987;-47
2023/12/09 02:15:03;;;;;;;46.47;27.33;;;;;;;;;;4992584;28;20505;-47
2023/12/09 02:17:32;;;;;;;50.00;26.53;;;;;;;;;;4991196;28;20848;-46
2023/12/09 02:20:00;;;;;;;47.33;25.40;;;;;;;;;;4992533;28;20203;-47
2023/12/09 02:22:26;;;;;;;48.50;24.17;;;;;;;;;;4992601;28;20462;-46
2023/12/09 02:24:53;;;;;;;48.47;24.77;;;;;;;;;;4992515;28;20469;-47
2023/12/09 02:27:23;;;;;;;48.60;24.23;;;;;;;;;;4992296;28;20704;-47
2023/12/09 02:29:51;;;;;;;39.63;24.87;;;;;;;;;;4992172;28;20955;-47
2023/12/09 02:32:18;;;;;;;45.17;24.10;;;;;;;;;;4992190;28;20524;-47
2023/12/09 02:34:44;;;;;;;46.80;23.73;;;;;;;;;;4991749;28;20528;-47
2023/12/09 02:37:12;;;;;;;48.53;23.83;;;;;;;;;;4992362;28;20528;-47
2023/12/09 02:39:38;;;;;;;40.90;22.07;;;;;;;;;;4992144;28;20437;-47
2023/12/09 02:42:06;;;;;;;43.63;23.10;;;;;;;;;;4992305;28;20441;-47
2023/12/09 02:44:32;;;;;;;34.60;21.10;;;;;;;;;;4991970;28;20433;-47
2023/12/09 02:46:58;;;;;;;43.73;22.07;;;;;;;;;;4992189;28;20445;-47
2023/12/09 02:49:24;;;;;;;37.80;21.60;;;;;;;;;;4992255;28;20924;-47
2023/12/09 02:51:50;;;;;;;36.70;20.67;;;;;;;;;;4991905;28;20245;-47
2023/12/09 02:54:16;;;;;;;34.50;20.57;;;;;;;;;;4992057;28;20198;-47
2023/12/09 02:56:42;;;;;;;35.47;19.73;;;;;;;;;;4992034;28;20331;-47
2023/12/09 02:59:10;;;;;;;32.77;19.13;;;;;;;;;;4992023;28;20253;-47
2023/12/09 03:01:36;;;;;;;31.40;18.20;;;;;;;;;;4991899;28;20696;-47
2023/12/09 03:04:02;;;;;;;30.40;19.47;;;;;;;;;;4992098;28;20453;-47
2023/12/09 03:06:28;;;;;;;26.50;17.53;;;;;;;;;;4991974;28;20289;-47
2023/12/09 03:08:54;;;;;;;35.13;18.23;;;;;;;;;;4992137;28;20430;-47
2023/12/09 03:11:20;;;;;;;35.70;18.67;;;;;;;;;;4991727;28;20484;-47
2023/12/09 03:13:46;;;;;;;32.80;16.70;;;;;;;;;;4991807;28;20201;-47
2023/12/09 03:16:13;;;;;;;28.00;17.63;;;;;;;;;;4992086;28;20212;-47
2023/12/09 03:18:39;;;;;;;26.37;15.97;;;;;;;;;;4991916;28;20286;-47
2023/12/09 03:21:05;;;;;;;31.67;17.13;;;;;;;;;;4991840;28;20525;-47
2023/12/09 03:23:31;;;;;;;28.83;16.93;;;;;;;;;;4991615;28;20229;-47
2023/12/09 03:25:57;;;;;;;31.83;16.03;;;;;;;;;;4991847;28;20449;-48
2023/12/09 03:28:23;;;;;;;29.90;16.30;;;;;;;;;;4991746;28;20241;-47
2023/12/09 03:30:49;;;;;;;27.33;15.27;;;;;;;;;;4991605;28;20293;-47
2023/12/09 03:33:16;;;;;;;29.93;15.60;;;;;;;;;;4991986;28;20194;-47
2023/12/09 03:35:42;;;;;;;30.90;15.30;;;;;;;;;;4991791;28;20477;-47
2023/12/09 03:38:08;;;;;;;27.77;15.77;;;;;;;;;;4991970;28;20226;-47
2023/12/09 03:40:34;;;;;;;26.60;14.40;;;;;;;;;;4991631;28;20689;-47
2023/12/09 03:43:00;;;;;;;24.00;15.13;;;;;;;;;;4991734;28;20226;-47
2023/12/09 03:45:27;;;;;;;25.73;15.27;;;;;;;;;;4991770;28;20780;-47
2023/12/09 03:47:53;;;;;;;30.57;14.50;;;;;;;;;;4993389;28;20198;-47
2023/12/09 03:50:20;;;;;;;23.43;14.07;;;;;;;;;;4995405;28;20884;-47
2023/12/09 03:52:46;;;;;;;21.63;13.97;;;;;;;;;;4995173;28;20245;-47
2023/12/09 03:55:14;;;;;;;28.20;14.43;;;;;;;;;;4995317;28;20187;-46
2023/12/09 03:57:40;;;;;;;28.47;14.27;;;;;;;;;;4995591;28;20652;-47
2023/12/09 04:00:07;;;;;;;28.53;14.13;;;;;;;;;;4995179;28;20446;-46
2023/12/09 04:02:34;;;;;;;24.77;14.23;;;;;;;;;;4994991;28;20214;-46
2023/12/09 04:05:00;;;;;;;26.93;13.77;;;;;;;;;;4995100;28;20500;-47
2023/12/09 04:07:27;;;;;;;22.43;13.53;;;;;;;;;;4995257;28;20205;-46
2023/12/09 04:09:53;;;;;;;20.10;13.00;;;;;;;;;;4995084;28;20210;-46
2023/12/09 04:12:19;;;;;;;19.97;13.07;;;;;;;;;;4994905;28;20489;-46
2023/12/09 04:14:47;;;;;;;19.27;12.87;;;;;;;;;;4994773;28;20249;-46
2023/12/09 04:17:12;;;;;;;18.13;11.90;;;;;;;;;;4995038;28;20237;-46
2023/12/09 04:19:38;;;;;;;20.93;12.00;;;;;;;;;;4994873;28;20457;-47
2023/12/09 04:22:04;;;;;;;17.97;11.33;;;;;;;;;;4994713;28;20230;-46
2023/12/09 04:24:32;;;;;;;21.20;11.60;;;;;;;;;;4994628;28;20244;-46
2023/12/09 04:26:58;;;;;;;23.23;12.17;;;;;;;;;;4994538;28;20655;-46
2023/12/09 04:29:24;;;;;;;20.20;10.97;;;;;;;;;;4994709;28;20472;-46
2023/12/09 04:31:51;;;;;;;17.07;10.20;;;;;;;;;;4994498;28;20226;-46
2023/12/09 04:34:17;;;;;;;19.53;10.37;;;;;;;;;;4994454;28;20441;-47
2023/12/09 04:36:43;;;;;;;14.73;9.63;;;;;;;;;;4994508;28;20198;-47
2023/12/09 04:39:09;;;;;;;18.90;10.47;;;;;;;;;;4994462;28;20253;-46
2023/12/09 04:41:38;;;;;;;15.90;9.87;;;;;;;;;;4994313;28;20229;-47
2023/12/09 04:44:04;;;;;;;23.27;10.97;;;;;;;;;;4994283;28;20681;-47
2023/12/09 04:46:31;;;;;;;18.03;11.10;;;;;;;;;;4994280;28;20202;-46
2023/12/09 04:48:57;;;;;;;20.47;9.90;;;;;;;;;;4994342;28;20781;-47
2023/12/09 04:51:23;;;;;;;18.90;9.80;;;;;;;;;;4994233;28;20483;-47
2023/12/09 04:53:50;;;;;;;16.20;9.40;;;;;;;;;;4994111;28;20609;-47
2023/12/09 04:56:16;;;;;;;18.70;9.93;;;;;;;;;;4994222;28;20818;-47
2023/12/09 04:58:43;;;;;;;16.83;9.80;;;;;;;;;;4993515;28;20221;-47
2023/12/09 05:01:09;;;;;;;17.40;8.23;;;;;;;;;;4982257;28;20452;-47
2023/12/09 05:03:36;;;;;;;14.50;8.63;;;;;;;;;;4982139;28;20854;-47
2023/12/09 05:06:04;;;;;;;15.03;9.10;;;;;;;;;;4980463;28;20190;-47
2023/12/09 05:08:30;;;;;;;16.93;8.87;;;;;;;;;;4980460;28;20445;-47
2023/12/09 05:10:56;;;;;;;15.30;8.40;;;;;;;;;;4981922;28;20198;-46
2023/12/09 05:13:22;;;;;;;16.93;8.50;;;;;;;;;;4980273;28;20560;-47
2023/12/09 05:15:49;;;;;;;12.37;8.27;;;;;;;;;;4980297;28;20202;-47
2023/12/09 05:18:15;;;;;;;13.47;8.63;;;;;;;;;;4983573;28;20206;-47
2023/12/09 05:20:41;;;;;;;16.77;9.00;;;;;;;;;;4981872;28;20432;-47
2023/12/09 05:23:07;;;;;;;14.23;7.80;;;;;;;;;;4981847;28;20441;-47
2023/12/09 05:25:33;;;;;;;13.37;8.13;;;;;;;;;;4980286;28;20731;-47
2023/12/09 05:27:59;;;;;;;12.30;7.80;;;;;;;;;;4979805;28;20245;-47
2023/12/09 05:30:25;;;;;;;16.13;8.40;;;;;;;;;;4981929;28;20209;-47
2023/12/09 05:32:52;;;;;;;16.40;8.07;;;;;;;;;;4980614;28;20230;-47
2023/12/09 05:35:18;;;;;;;15.33;8.60;;;;;;;;;;4981553;28;20210;-47
2023/12/09 05:37:44;;;;;;;19.30;9.20;;;;;;;;;;4979664;28;20186;-47
2023/12/09 05:40:11;;;;;;;18.07;8.60;;;;;;;;;;4981661;28;20245;-47
2023/12/09 05:42:37;;;;;;;11.50;7.57;;;;;;;;;;4981334;28;20653;-47
2023/12/09 05:45:04;;;;;;;15.07;7.57;;;;;;;;;;4979686;28;20198;-47
2023/12/09 05:47:30;;;;;;;15.40;8.70;;;;;;;;;;4981330;28;20635;-47
2023/12/09 05:49:57;;;;;;;13.70;7.80;;;;;;;;;;4979420;28;20313;-47
2023/12/09 05:52:23;;;;;;;16.83;7.60;;;;;;;;;;4979481;28;20230;-47
2023/12/09 05:54:49;;;;;;;13.10;7.47;;;;;;;;;;4981135;28;20194;-46
2023/12/09 05:57:15;;;;;;;16.50;8.67;;;;;;;;;;4979559;28;20186;-47
2023/12/09 05:59:41;;;;;;;12.47;7.30;;;;;;;;;;4979432;28;20444;-47
2023/12/09 06:02:07;;;;;;;16.90;8.03;;;;;;;;;;4981332;28;20248;-47
2023/12/09 06:04:33;;;;;;;13.50;8.60;;;;;;;;;;4981017;28;20680;-47
2023/12/09 06:07:01;;;;;;;16.70;7.63;;;;;;;;;;4979318;28;20206;-47
2023/12/09 06:09:27;;;;;;;11.47;7.27;;;;;;;;;;4979115;28;20205;-46
2023/12/09 06:11:53;;;;;;;13.73;7.27;;;;;;;;;;4977714;28;20624;-47
2023/12/09 06:14:19;;;;;;;16.00;7.47;;;;;;;;;;4979223;28;20202;-47
2023/12/09 06:16:45;;;;;;;11.37;7.23;;;;;;;;;;4979093;28;20241;-46
2023/12/09 06:19:10;;;;;;;12.70;7.03;;;;;;;;;;4979271;28;20205;-47
2023/12/09 06:21:36;;;;;;;15.73;7.13;;;;;;;;;;4979018;28;20652;-47
2023/12/09 06:24:04;;;;;;;14.83;8.03;;;;;;;;;;4978964;28;20222;-47
2023/12/09 06:26:30;;;;;;;10.27;6.63;;;;;;;;;;4978882;28;20229;-47
2023/12/09 06:28:56;;;;;;;12.50;7.40;;;;;;;;;;4980673;28;20492;-47
2023/12/09 06:31:22;;;;;;;14.67;7.10;;;;;;;;;;4978966;28;20226;-47
2023/12/09 06:33:48;;;;;;;17.03;6.87;;;;;;;;;;4978829;28;20288;-47
2023/12/09 06:36:14;;;;;;;11.23;7.23;;;;;;;;;;4978885;28;20202;-47
2023/12/09 06:38:40;;;;;;;12.83;7.03;;;;;;;;;;4978861;28;20570;-47
2023/12/09 06:41:08;;;;;;;13.10;6.67;;;;;;;;;;4980587;28;20237;-46
2023/12/09 06:43:34;;;;;;;13.37;6.50;;;;;;;;;;4978715;28;20473;-46
2023/12/09 06:46:03;;;;;;;10.33;6.43;;;;;;;;;;4978514;28;20233;-47
2023/12/09 06:48:29;;;;;;;12.63;5.93;;;;;;;;;;4980391;28;20294;-47
2023/12/09 06:50:55;;;;;;;9.70;6.90;;;;;;;;;;4980470;28;20532;-47
2023/12/09 06:53:22;;;;;;;14.93;6.70;;;;;;;;;;4978487;28;20212;-47
2023/12/09 06:55:48;;;;;;;19.13;7.67;;;;;;;;;;4980083;28;20524;-47
2023/12/09 06:58:16;;;;;;;13.13;6.30;;;;;;;;;;4978609;28;20660;-46
2023/12/09 07:00:42;;;;;;;11.03;6.70;;;;;;;;;;4978629;28;20206;-46
2023/12/09 07:03:08;;;;;;;14.07;6.60;;;;;;;;;;4982103;28;20743;-46
2023/12/09 07:05:34;;;;;;;17.40;6.90;;;;;;;;;;4979864;28;20215;-47
2023/12/09 07:08:00;;;;;;;11.03;6.83;;;;;;;;;;4979901;28;20206;-47
2023/12/09 07:10:26;;;;;;;12.50;6.17;;;;;;;;;;4978436;28;20198;-46
2023/12/09 07:12:52;;;;;;;12.70;5.87;;;;;;;;;;4981480;28;20236;-47
2023/12/09 07:15:20;;;;;;;14.77;7.23;;;;;;;;;;4978250;28;20210;-46
2023/12/09 07:17:46;;;;;;;9.90;6.23;;;;;;;;;;4979881;28;20285;-46
2023/12/09 07:20:12;;;;;;;11.10;6.10;;;;;;;;;;4978324;28;20292;-46
2023/12/09 07:22:38;;;;;;;12.50;6.17;;;;;;;;;;4982601;28;20229;-46
2023/12/09 07:25:04;;;;;;;11.57;6.60;;;;;;;;;;4983856;28;20256;-46
2023/12/09 07:27:30;;;;;;;12.43;6.67;;;;;;;;;;4982060;28;20233;-47
2023/12/09 07:29:56;;;;;;;11.63;6.43;;;;;;;;;;4983891;28;20688;-47
2023/12/09 07:32:24;;;;;;;12.30;6.00;;;;;;;;;;4979985;28;20240;-46
2023/12/09 07:34:51;;;;;;;15.90;6.07;;;;;;;;;;4983511;28;20233;-46
2023/12/09 07:37:17;;;;;;;14.13;6.27;;;;;;;;;;4981976;28;20619;-46
2023/12/09 07:39:43;;;;;;;16.67;5.90;;;;;;;;;;4981794;28;21039;-47
2023/12/09 07:42:09;;;;;;;16.27;6.53;;;;;;;;;;4982011;28;20421;-46
2023/12/09 07:44:35;;;;;;;11.20;5.63;;;;;;;;;;4983388;28;20210;-46
2023/12/09 07:47:01;;;;;;;14.10;6.50;;;;;;;;;;4981636;28;20202;-46
2023/12/09 07:49:29;;;;;;;15.20;6.27;;;;;;;;;;4983463;28;20549;-46
2023/12/09 07:51:55;;;;;;;14.87;6.47;;;;;;;;;;4983430;28;20688;-46
2023/12/09 07:54:21;;;;;;;13.10;6.07;;;;;;;;;;4981647;28;20440;-46
2023/12/09 07:56:47;;;;;;;16.33;6.40;;;;;;;;;;4983142;28;20410;-46
2023/12/09 07:59:13;;;;;;;14.37;6.07;;;;;;;;;;4982265;28;20210;-46
2023/12/09 08:01:40;;;;;;;11.63;5.57;;;;;;;;;;4981662;28;20233;-46
2023/12/09 08:04:06;;;;;;;11.63;4.80;;;;;;;;;;4983215;28;20268;-46
2023/12/09 08:06:33;;;;;;;11.70;6.00;;;;;;;;;;4982673;28;20511;-46
2023/12/09 08:08:59;;;;;;;10.00;5.60;;;;;;;;;;4983042;28;21061;-46
2023/12/09 08:11:25;;;;;;;9.53;5.50;;;;;;;;;;4984869;28;20560;-46
2023/12/09 08:13:51;;;;;;;7.87;4.73;;;;;;;;;;4981043;28;20286;-47
2023/12/09 08:16:17;;;;;;;10.83;5.10;;;;;;;;;;4981379;28;20665;-47
2023/12/09 08:18:43;;;;;;;11.73;5.50;;;;;;;;;;4984218;28;20198;-47
2023/12/09 08:21:10;;;;;;;9.30;5.30;;;;;;;;;;4984746;28;20206;-47
2023/12/09 08:23:38;;;;;;;12.83;5.60;;;;;;;;;;4982634;28;20226;-47
2023/12/09 08:26:04;;;;;;;7.97;5.33;;;;;;;;;;4980969;28;21006;-47
2023/12/09 08:28:30;;;;;;;12.10;6.00;;;;;;;;;;4982501;28;20531;-47
2023/12/09 08:30:56;;;;;;;8.83;5.33;;;;;;;;;;4982727;28;20202;-47
2023/12/09 08:33:22;;;;;;;11.07;5.43;;;;;;;;;;4979906;28;20715;-47
2023/12/09 08:35:48;;;;;;;14.90;5.97;;;;;;;;;;4980718;28;20209;-47
2023/12/09 08:38:14;;;;;;;8.57;5.50;;;;;;;;;;4982538;28;20661;-47
2023/12/09 08:40:42;;;;;;;10.73;5.80;;;;;;;;;;4980795;28;20197;-47
2023/12/09 08:43:08;;;;;;;13.00;5.60;;;;;;;;;;4982598;28;20445;-47
2023/12/09 08:45:34;;;;;;;10.10;5.33;;;;;;;;;;4980674;28;20239;-47
2023/12/09 08:48:00;;;;;;;11.20;5.67;;;;;;;;;;4980518;28;20621;-47
2023/12/09 08:50:26;;;;;;;10.70;5.20;;;;;;;;;;4980762;28;20679;-47
2023/12/09 08:52:52;;;;;;;12.53;5.07;;;;;;;;;;4982118;28;20229;-47
2023/12/09 08:55:18;;;;;;;11.77;4.97;;;;;;;;;;4980568;28;20210;-47
2023/12/09 08:57:45;;;;;;;11.07;5.30;;;;;;;;;;4980286;28;20202;-47
2023/12/09 09:00:13;;;;;;;9.47;5.07;;;;;;;;;;4983963;28;20213;-47
2023/12/09 09:02:39;;;;;;;10.23;5.27;;;;;;;;;;4982144;28;20198;-47
2023/12/09 09:05:06;;;;;;;7.50;4.53;;;;;;;;;;4982009;28;20549;-47
2023/12/09 09:07:36;;;;;;;8.87;4.60;;;;;;;;;;4980287;28;20191;-47
2023/12/09 09:10:02;;;;;;;7.50;4.20;;;;;;;;;;4986823;28;20748;-47
2023/12/09 09:12:28;;;;;;;8.47;4.73;;;;;;;;;;4993353;28;20320;-47
2023/12/09 09:14:56;;;;;;;5.23;4.20;;;;;;;;;;4990237;28;20198;-47
2023/12/09 09:17:22;;;;;;;7.73;4.20;;;;;;;;;;4980126;28;20210;-47
2023/12/09 09:19:48;;;;;;;10.03;4.83;;;;;;;;;;4981630;28;20688;-47
2023/12/09 09:22:15;;;;;;;8.37;4.73;;;;;;;;;;4981634;28;20214;-47
2023/12/09 09:24:41;;;;;;;6.43;4.70;;;;;;;;;;4983338;28;20207;-47
2023/12/09 09:27:07;;;;;;;7.87;4.30;;;;;;;;;;4978015;28;20720;-47
2023/12/09 09:29:33;;;;;;;7.90;4.60;;;;;;;;;;4989934;28;20210;-47
2023/12/09 09:32:00;;;;;;;6.90;4.17;;;;;;;;;;4992939;28;20238;-47
2023/12/09 09:34:26;;;;;;;8.67;4.63;;;;;;;;;;4993192;28;20577;-47
2023/12/09 09:36:52;;;;;;;6.83;4.47;;;;;;;;;;4992920;28;20198;-47
2023/12/09 09:39:18;;;;;;;7.87;4.70;;;;;;;;;;4993192;28;20272;-47
2023/12/09 09:41:50;;;;;;;5.80;4.47;;;;;;;;;;4992837;28;20202;-47
2023/12/09 09:44:18;;;;;;;6.07;4.10;;;;;;;;;;4992924;28;20252;-46
2023/12/09 09:46:46;;;;;;;7.57;4.87;;;;;;;;;;4992884;28;20285;-47
2023/12/09 09:49:13;;;;;;;8.17;4.67;;;;;;;;;;4992875;28;20676;-47
2023/12/09 09:51:43;;;;;;;6.90;4.27;;;;;;;;;;4992863;28;20234;-46
2023/12/09 09:54:11;;;;;;;7.43;4.73;;;;;;;;;;4992905;28;20213;-46
2023/12/09 09:56:38;;;;;;;8.03;4.20;;;;;;;;;;4992801;28;20253;-46
2023/12/09 09:59:04;;;;;;;5.30;4.30;;;;;;;;;;4992524;28;20237;-47
2023/12/09 10:01:31;;;;;;;7.87;4.57;;;;;;;;;;4992618;28;20210;-47
2023/12/09 10:03:57;;;;;;;7.53;4.87;;;;;;;;;;4992641;28;20276;-46
2023/12/09 10:06:25;;;;;;;6.67;5.23;;;;;;;;;;4992809;28;20374;-46
2023/12/09 10:08:51;;;;;;;7.67;5.60;;;;;;;;;;4992431;28;20210;-46
2023/12/09 10:11:17;;;;;;;9.43;5.40;;;;;;;;;;4992518;28;20256;-46
2023/12/09 10:13:43;;;;;;;8.07;5.50;;;;;;;;;;4992340;28;20565;-46
2023/12/09 10:16:10;;;;;;;9.70;5.90;;;;;;;;;;4992610;28;20556;-46
2023/12/09 10:18:36;;;;;;;7.77;5.60;;;;;;;;;;4992424;28;20237;-46
2023/12/09 10:21:04;;;;;;;8.30;5.77;;;;;;;;;;4992073;28;20197;-46
2023/12/09 10:23:32;;;;;;;9.53;6.03;;;;;;;;;;4987017;28;20288;-46
2023/12/09 10:25:58;;;;;;;6.83;6.00;;;;;;;;;;4983685;28;20206;-46
2023/12/09 10:28:24;;;;;;;9.93;5.97;;;;;;;;;;4985421;28;20242;-46
2023/12/09 10:30:51;;;;;;;7.77;5.80;;;;;;;;;;4981923;28;20254;-46
2023/12/09 10:33:17;;;;;;;7.40;5.70;;;;;;;;;;4983464;28;20230;-46
2023/12/09 10:35:44;;;;;;;6.37;5.67;;;;;;;;;;4985334;28;20437;-46
2023/12/09 10:38:10;;;;;;;9.17;5.20;;;;;;;;;;4980409;28;20286;-46
2023/12/09 10:40:38;;;;;;;4.40;4.00;;;;;;;;;;4982002;28;20293;-47
2023/12/09 10:43:04;;;;;;;7.30;4.27;;;;;;;;;;4981811;28;20723;-46
2023/12/09 10:45:31;;;;;;;6.10;4.43;;;;;;;;;;4983333;28;20202;-47
2023/12/09 10:47:57;;;;;;;5.70;3.90;;;;;;;;;;4983348;28;20253;-47
2023/12/09 10:50:23;;;;;;;6.97;3.97;;;;;;;;;;4985100;28;20203;-47
2023/12/09 10:52:49;;;;;;;5.00;4.00;;;;;;;;;;4984926;28;20281;-47
2023/12/09 10:55:15;;;;;;;6.07;4.10;;;;;;;;;;4986786;28;20233;-47
2023/12/09 10:57:43;;;;;;;5.00;3.60;;;;;;;;;;4984696;28;20252;-47
2023/12/09 11:00:14;;;;;;;7.87;4.33;;;;;;;;;;4985316;28;20206;-47
2023/12/09 11:02:40;;;;;;;6.23;3.53;;;;;;;;;;4985286;28;20548;-47
2023/12/09 11:05:08;;;;;;;7.10;3.70;;;;;;;;;;4986596;28;20207;-47
2023/12/09 11:07:34;;;;;;;5.37;3.77;;;;;;;;;;4988393;28;20206;-47
2023/12/09 11:10:00;;;;;;;5.97;3.50;;;;;;;;;;4984876;28;20846;-47
2023/12/09 11:12:27;;;;;;;5.93;3.90;;;;;;;;;;4990111;28;20230;-47
2023/12/09 11:14:55;;;;;;;4.57;3.50;;;;;;;;;;4989966;28;20253;-47
2023/12/09 11:17:34;;;;;;;4.63;4.10;;;;;;;;;;4990076;28;20264;-46
2023/12/09 11:20:04;;;;;;;6.47;3.80;;;;;;;;;;4991399;28;20212;-46
2023/12/09 11:22:30;;;;;;;4.73;4.00;;;;;;;;;;4986311;28;20756;-47
2023/12/09 11:24:56;;;;;;;4.67;3.97;;;;;;;;;;4990089;28;20202;-46
2023/12/09 11:27:22;;;;;;;6.10;4.27;;;;;;;;;;4988004;28;20240;-46
2023/12/09 11:29:48;;;;;;;5.40;4.00;;;;;;;;;;4988117;28;20217;-46
2023/12/09 11:32:15;;;;;;;4.70;3.63;;;;;;;;;;4988266;28;20245;-46
2023/12/09 11:34:41;;;;;;;6.00;4.20;;;;;;;;;;4986457;28;20206;-47
2023/12/09 11:37:11;;;;;;;4.80;3.50;;;;;;;;;;4983115;28;20206;-46
2023/12/09 11:39:40;;;;;;;6.10;3.33;;;;;;;;;;4986450;28;20566;-47
2023/12/09 11:42:07;;;;;;;5.03;3.87;;;;;;;;;;4989611;28;20257;-46
2023/12/09 11:44:33;;;;;;;5.40;3.80;;;;;;;;;;4983005;28;20198;-47
2023/12/09 11:47:00;;;;;;;5.27;3.50;;;;;;;;;;4989781;28;20198;-47
2023/12/09 11:49:28;;;;;;;6.33;3.77;;;;;;;;;;4984736;28;20289;-47
2023/12/09 11:51:54;;;;;;;4.83;3.80;;;;;;;;;;4989730;28;20281;-47
2023/12/09 11:54:20;;;;;;;6.43;3.90;;;;;;;;;;4981203;28;20214;-47
2023/12/09 11:56:46;;;;;;;4.17;3.13;;;;;;;;;;4991010;28;20195;-47
2023/12/09 11:59:12;;;;;;;5.37;3.60;;;;;;;;;;4984628;28;20202;-48
2023/12/09 12:01:40;;;;;;;4.07;3.50;;;;;;;;;;4982945;28;20202;-48
2023/12/09 12:04:07;;;;;;;3.80;2.83;;;;;;;;;;4984304;28;20692;-48
2023/12/09 12:06:36;;;;;;;4.60;2.73;;;;;;;;;;4986238;28;20209;-47
2023/12/09 12:09:03;;;;;;;4.17;2.87;;;;;;;;;;4987911;28;20301;-46
2023/12/09 12:11:29;;;;;;;4.37;2.90;;;;;;;;;;4987815;28;20213;-48
2023/12/09 12:13:55;;;;;;;3.83;3.03;;;;;;;;;;4984694;28;20202;-48
2023/12/09 12:16:22;;;;;;;3.77;3.00;;;;;;;;;;4984550;28;20202;-47
2023/12/09 12:18:48;;;;;;;3.90;3.17;;;;;;;;;;4987785;28;20661;-46
2023/12/09 12:21:14;;;;;;;4.10;3.00;;;;;;;;;;4986272;28;20241;-46
2023/12/09 12:23:41;;;;;;;3.53;2.43;;;;;;;;;;4986133;28;20246;-47
2023/12/09 12:26:09;;;;;;;4.60;3.13;;;;;;;;;;4984362;28;20631;-47
2023/12/09 12:28:35;;;;;;;3.97;2.90;;;;;;;;;;4987527;28;20265;-47
2023/12/09 12:31:01;;;;;;;3.60;3.03;;;;;;;;;;4982603;28;20199;-47
2023/12/09 12:33:30;;;;;;;6.13;3.00;;;;;;;;;;4982603;28;20241;-47
2023/12/09 12:35:56;;;;;;;6.90;3.40;;;;;;;;;;4984265;28;20245;-47
2023/12/09 12:38:23;;;;;;;5.30;3.33;;;;;;;;;;4984371;28;20207;-46
2023/12/09 12:40:51;;;;;;;5.83;3.63;;;;;;;;;;4982720;28;20191;-48
2023/12/09 12:43:17;;;;;;;6.07;3.80;;;;;;;;;;4982217;28;20763;-47
2023/12/09 12:45:45;;;;;;;4.03;3.50;;;;;;;;;;4984209;28;20210;-47
2023/12/09 12:48:11;;;;;;;9.40;3.70;;;;;;;;;;4984072;28;20198;-47
2023/12/09 12:50:37;;;;;;;5.00;3.07;;;;;;;;;;4982347;28;20202;-47
2023/12/09 12:53:03;;;;;;;4.00;3.30;;;;;;;;;;4982047;28;20604;-47
2023/12/09 12:55:29;;;;;;;4.83;3.43;;;;;;;;;;4982219;28;20202;-47
2023/12/09 12:57:57;;;;;;;5.70;3.40;;;;;;;;;;4984153;28;20282;-48
2023/12/09 13:00:23;;;;;;;6.80;3.30;;;;;;;;;;4980384;28;20187;-47
2023/12/09 13:02:49;;;;;;;5.73;3.43;;;;;;;;;;4983919;28;20261;-48
2023/12/09 13:05:15;;;;;;;9.20;3.50;;;;;;;;;;4982032;28;20657;-48
2023/12/09 13:07:43;;;;;;;5.80;3.00;;;;;;;;;;4983858;28;20205;-48
2023/12/09 13:10:09;;;;;;;5.87;3.40;;;;;;;;;;4981956;28;20199;-47
2023/12/09 13:12:35;;;;;;;4.70;3.40;;;;;;;;;;4985380;28;20233;-47
2023/12/09 13:15:04;;;;;;;3.63;3.07;;;;;;;;;;4982465;28;20661;-47
2023/12/09 13:17:30;;;;;;;6.13;3.30;;;;;;;;;;4983412;28;20206;-47
2023/12/09 13:19:56;;;;;;;7.07;3.50;;;;;;;;;;4981353;28;20229;-47
2023/12/09 13:22:22;;;;;;;6.30;3.03;;;;;;;;;;4981713;28;20238;-48
2023/12/09 13:24:50;;;;;;;5.37;3.27;;;;;;;;;;4982870;28;20843;-47
2023/12/09 13:27:16;;;;;;;5.13;3.40;;;;;;;;;;4983140;28;20242;-46
2023/12/09 13:29:43;;;;;;;4.30;2.97;;;;;;;;;;4983467;28;20204;-46
2023/12/09 13:32:10;;;;;;;4.27;3.00;;;;;;;;;;4984919;28;20210;-47
2023/12/09 13:34:36;;;;;;;6.63;3.47;;;;;;;;;;4984735;28;20214;-47
2023/12/09 13:37:02;;;;;;;4.20;3.20;;;;;;;;;;4981382;28;20282;-48
2023/12/09 13:39:30;;;;;;;6.70;3.60;;;;;;;;;;4979606;28;20229;-47
2023/12/09 13:41:56;;;;;;;3.93;3.17;;;;;;;;;;4981305;28;20198;-47
2023/12/09 13:44:21;;;;;;;5.27;3.50;;;;;;;;;;4979869;28;20209;-47
2023/12/09 13:46:47;;;;;;;8.00;3.60;;;;;;;;;;4982816;28;20674;-47
2023/12/09 13:49:15;;;;;;;8.70;3.97;;;;;;;;;;4981467;28;20253;-47
2023/12/09 13:51:41;;;;;;;6.47;4.10;;;;;;;;;;4981180;28;20684;-47
2023/12/09 13:54:08;;;;;;;6.27;3.60;;;;;;;;;;4984702;28;20225;-47
2023/12/09 13:56:35;;;;;;;7.10;4.00;;;;;;;;;;4984265;28;20202;-46
2023/12/09 13:59:02;;;;;;;7.87;4.73;;;;;;;;;;4982601;28;20210;-46
2023/12/09 14:01:28;;;;;;;6.23;3.23;;;;;;;;;;4982654;28;20673;-47
2023/12/09 14:03:54;;;;;;;5.93;3.60;;;;;;;;;;4981159;28;20623;-47
2023/12/09 14:06:22;;;;;;;8.00;3.67;;;;;;;;;;4980832;28;20743;-47
2023/12/09 14:08:48;;;;;;;5.53;3.67;;;;;;;;;;4980962;28;20639;-47
2023/12/09 14:11:14;;;;;;;5.50;3.53;;;;;;;;;;4980759;28;20253;-47
2023/12/09 14:13:40;;;;;;;6.97;4.30;;;;;;;;;;4979161;28;20226;-47
2023/12/09 14:16:07;;;;;;;5.40;3.90;;;;;;;;;;4978973;28;20246;-47
2023/12/09 14:18:33;;;;;;;6.63;4.10;;;;;;;;;;4982369;28;20194;-47
2023/12/09 14:20:59;;;;;;;7.07;3.53;;;;;;;;;;4978929;28;20198;-47
2023/12/09 14:23:27;;;;;;;6.47;4.03;;;;;;;;;;4984152;28;20252;-46
2023/12/09 14:25:53;;;;;;;4.97;3.63;;;;;;;;;;4981282;28;20206;-47